Rp Zug — HE7351 — position and weather

sailwx.info

Track history (hours):
 
Tides and Currents Weather Stations Pressure Air Temp Water Temp Dewpoint Dewpoint Depression Visibility Wind Speed Wind Dir Waves Ship Positions

Rp Zug

Last reported at 2015-Jan-27 03:29 UTC. Time now 2015-Jan-28 06:38 UTC.
Position N 49°25' E 008°30'.

Type: Tanker. MMSI: 269057351.

Date/timePositionNaut miles runAvg speedWind from/ knotsBaromVisibWave heightAir tempDewpointWater temp
2015-Jan-27 03:29N 49°25' E 008°30'8 8.8
2015-Jan-27 02:33N 49°17' E 008°28'1010.1
2015-Jan-27 01:33N 49°08' E 008°22'4 3.6
2015-Jan-27 00:33N 49°04' E 008°20'0 0.0
2015-Jan-26 23:33N 49°04' E 008°20'0 0.0
2015-Jan-26 22:33N 49°04' E 008°20'0 0.0
2015-Jan-26 21:33N 49°04' E 008°20'0 0.0
2015-Jan-26 20:33N 49°04' E 008°20'0 0.0
2015-Jan-26 19:33N 49°04' E 008°20'0 0.0
2015-Jan-26 18:33N 49°04' E 008°20'0 0.0
2015-Jan-26 17:33N 49°04' E 008°20'0 0.0
2015-Jan-26 16:33N 49°04' E 008°20'0 0.0
2015-Jan-26 15:33N 49°04' E 008°20'0 0.0
2015-Jan-26 14:33N 49°04' E 008°20'0 0.0
2015-Jan-26 13:33N 49°04' E 008°20'0 0.0
2015-Jan-26 12:33N 49°04' E 008°20'0 0.0
2015-Jan-26 11:33N 49°04' E 008°20'0 0.0
2015-Jan-26 10:33N 49°04' E 008°20'0 0.3
2015-Jan-26 09:33N 49°04' E 008°20'0 0.0
2015-Jan-26 08:33N 49°04' E 008°20'0 0.0
2015-Jan-26 07:33N 49°04' E 008°20'0 0.0
2015-Jan-26 06:33N 49°04' E 008°20'0 0.0
2015-Jan-26 05:33N 49°04' E 008°20'0 0.0
2015-Jan-26 04:33N 49°04' E 008°20'0 0.0
2015-Jan-26 03:33N 49°04' E 008°20'0 0.0
2015-Jan-26 02:33N 49°04' E 008°20'0 0.0
2015-Jan-26 01:33N 49°04' E 008°20'0 0.0
2015-Jan-26 00:33N 49°04' E 008°20'0 0.0
2015-Jan-25 23:33N 49°04' E 008°20'0 0.0
2015-Jan-25 22:33N 49°04' E 008°20'0 0.0
2015-Jan-25 21:33N 49°04' E 008°20'0 0.0
2015-Jan-25 20:33N 49°04' E 008°20'0 0.0
2015-Jan-25 19:33N 49°04' E 008°20'0 0.0
2015-Jan-25 18:33N 49°04' E 008°20'0 0.0
2015-Jan-25 17:33N 49°04' E 008°20'0 0.2
2015-Jan-25 16:33N 49°04' E 008°20'0 0.0
2015-Jan-25 15:33N 49°04' E 008°20'0 0.0
2015-Jan-25 14:33N 49°04' E 008°20'0 0.0
2015-Jan-25 13:33N 49°04' E 008°20'0 0.0
2015-Jan-25 12:33N 49°04' E 008°20'0 0.0
2015-Jan-25 11:33N 49°04' E 008°20'0 0.0
2015-Jan-25 10:33N 49°04' E 008°20'0 0.2
2015-Jan-25 09:33N 49°04' E 008°20'0 0.1
2015-Jan-25 08:33N 49°04' E 008°20'1 0.6
2015-Jan-25 07:33N 49°04' E 008°19'1212.3
2015-Jan-25 06:33N 48°54' E 008°09'6 6.5
2015-Jan-25 05:33N 48°48' E 008°05'9 9.4
2015-Jan-25 04:33N 48°41' E 007°55'1 0.1
2015-Jan-24 10:10N 48°40' E 007°54'1 2.3
2015-Jan-24 09:34N 48°41' E 007°55'6 5.4
2015-Jan-24 08:32N 48°46' E 008°00'6 6.1
2015-Jan-24 07:33N 48°50' E 008°07'2 1.9
2015-Jan-24 06:33N 48°52' E 008°07'3 3.5
2015-Jan-24 05:33N 48°55' E 008°09'4 3.6
2015-Jan-24 04:33N 48°58' E 008°13'4 3.6
2015-Jan-24 03:33N 48°60' E 008°17'4 4.0
2015-Jan-24 02:34N 49°04' E 008°19'4 3.8
2015-Jan-24 01:33N 49°07' E 008°22'4 3.9
2015-Jan-24 00:33N 49°11' E 008°23'4 4.1
2015-Jan-23 23:33N 49°15' E 008°24'4 4.4
2015-Jan-23 22:33N 49°18' E 008°29'3 3.2
2015-Jan-23 21:33N 49°21' E 008°29'6 4.7
2015-Jan-23 20:18N 49°27' E 008°30'  
2015-Jan-21 13:18N 49°24' E 008°30'810.3
2015-Jan-21 12:33N 49°17' E 008°27'1312.6
2015-Jan-21 11:33N 49°05' E 008°20'1 0.6
2015-Jan-21 10:33N 49°04' E 008°20'0 0.0
2015-Jan-21 09:33N 49°04' E 008°20'0 0.0
2015-Jan-21 08:33N 49°04' E 008°20'0 0.0
2015-Jan-21 07:33N 49°04' E 008°20'0 0.0
2015-Jan-21 06:33N 49°04' E 008°20'0 0.0
2015-Jan-21 05:33N 49°04' E 008°20'0 0.0
2015-Jan-21 04:33N 49°04' E 008°20'0 0.0
2015-Jan-21 03:33N 49°04' E 008°20'0 0.0
2015-Jan-21 02:33N 49°04' E 008°20'0 0.0
2015-Jan-21 01:33N 49°04' E 008°20'0 0.0
2015-Jan-21 00:33N 49°04' E 008°20'0 0.1
2015-Jan-20 23:33N 49°04' E 008°20'0 0.0
2015-Jan-20 22:33N 49°04' E 008°20'0 0.0
2015-Jan-20 21:34N 49°04' E 008°20'0 0.0
2015-Jan-20 20:33N 49°04' E 008°20'2 2.2
2015-Jan-20 19:33N 49°06' E 008°22'5 4.8
2015-Jan-20 18:33N 49°11' E 008°23'5 4.8
2015-Jan-20 17:33N 49°15' E 008°26'4 3.7
2015-Jan-20 16:33N 49°19' E 008°27'6 5.5
2015-Jan-20 15:22N 49°25' E 008°30'38 4.3
2015-Jan-20 06:31N 50°03' E 008°31'2 0.2
2015-Jan-19 19:24N 50°05' E 008°31'3 3.5
2015-Jan-19 18:33N 50°05' E 008°36'5 5.0
2015-Jan-19 17:33N 50°06' E 008°44'5 5.4
2015-Jan-19 16:33N 50°08' E 008°52'1 0.6
2015-Jan-19 15:33N 50°07' E 008°53'4 4.1
2015-Jan-19 14:33N 50°05' E 008°58'6 4.3
2015-Jan-19 13:15N 50°00' E 009°03'3 0.8
2015-Jan-19 09:21N 49°58' E 009°06'0 0.0
2015-Jan-19 08:24N 49°58' E 009°06'0 0.0
2015-Jan-19 07:31N 49°58' E 009°06'0 0.0
2015-Jan-19 06:32N 49°58' E 009°06'0 0.0
2015-Jan-19 05:33N 49°58' E 009°06'0 0.0
2015-Jan-19 04:04N 49°58' E 009°06'0 0.0
2015-Jan-18 18:29N 49°58' E 009°06'0 0.0
2015-Jan-18 10:31N 49°58' E 009°06'3 3.1
2015-Jan-18 09:33N 50°00' E 009°03'4 3.7
2015-Jan-18 08:33N 50°03' E 008°59'2 2.2
2015-Jan-18 07:33N 50°05' E 008°57'4 4.1
2015-Jan-18 06:33N 50°07' E 008°52'4 3.7
2015-Jan-18 05:33N 50°08' E 008°47'2 2.5
2015-Jan-18 04:33N 50°07' E 008°44'0 0.0
2015-Jan-18 03:33N 50°07' E 008°44'0 0.0
2015-Jan-18 02:31N 50°07' E 008°44'0 0.0
2015-Jan-18 01:33N 50°07' E 008°44'0 0.0
2015-Jan-18 00:33N 50°07' E 008°44'0 0.0
2015-Jan-17 23:33N 50°07' E 008°44'0 0.0
2015-Jan-17 22:33N 50°07' E 008°44'0 0.0
2015-Jan-17 21:33N 50°07' E 008°44'0 0.0
2015-Jan-17 20:33N 50°07' E 008°44'0 0.0
2015-Jan-17 19:33N 50°07' E 008°44'0 0.0
2015-Jan-17 18:33N 50°07' E 008°44'0 0.0
2015-Jan-17 17:33N 50°07' E 008°44'1 0.7
2015-Jan-17 16:33N 50°06' E 008°43'5 4.6
2015-Jan-17 15:33N 50°05' E 008°36'3 2.8
2015-Jan-17 14:27N 50°04' E 008°32'42 6.0
2015-Jan-17 07:33N 49°22' E 008°30'10 9.7
2015-Jan-17 06:33N 49°14' E 008°23'10 9.6
2015-Jan-17 05:33N 49°04' E 008°21'0 0.0
2015-Jan-17 04:33N 49°04' E 008°21'0 0.0
2015-Jan-17 03:33N 49°04' E 008°21'  
Track history (hours):
 
Tides and Currents Weather Stations Pressure Air Temp Water Temp Dewpoint Dewpoint Depression Visibility Wind Speed Wind Dir Waves Ship Positions

Rp Zug

Last reported at 2015-Jan-27 03:29 UTC. Time now 2015-Jan-28 06:38 UTC.
Position N 49°25' E 008°30'.

Type: Tanker. MMSI: 269057351.

Date/timePositionNaut miles runAvg speedWind from/ knotsBaromVisibWave heightAir tempDewpointWater temp
2015-Jan-27 03:29N 49°25' E 008°30'8 8.8
2015-Jan-27 02:33N 49°17' E 008°28'1010.1
2015-Jan-27 01:33N 49°08' E 008°22'4 3.6
2015-Jan-27 00:33N 49°04' E 008°20'0 0.0
2015-Jan-26 23:33N 49°04' E 008°20'0 0.0
2015-Jan-26 22:33N 49°04' E 008°20'0 0.0
2015-Jan-26 21:33N 49°04' E 008°20'0 0.0
2015-Jan-26 20:33N 49°04' E 008°20'0 0.0
2015-Jan-26 19:33N 49°04' E 008°20'0 0.0
2015-Jan-26 18:33N 49°04' E 008°20'0 0.0
2015-Jan-26 17:33N 49°04' E 008°20'0 0.0
2015-Jan-26 16:33N 49°04' E 008°20'0 0.0
2015-Jan-26 15:33N 49°04' E 008°20'0 0.0
2015-Jan-26 14:33N 49°04' E 008°20'0 0.0
2015-Jan-26 13:33N 49°04' E 008°20'0 0.0
2015-Jan-26 12:33N 49°04' E 008°20'0 0.0
2015-Jan-26 11:33N 49°04' E 008°20'0 0.0
2015-Jan-26 10:33N 49°04' E 008°20'0 0.3
2015-Jan-26 09:33N 49°04' E 008°20'0 0.0
2015-Jan-26 08:33N 49°04' E 008°20'0 0.0
2015-Jan-26 07:33N 49°04' E 008°20'0 0.0
2015-Jan-26 06:33N 49°04' E 008°20'0 0.0
2015-Jan-26 05:33N 49°04' E 008°20'0 0.0
2015-Jan-26 04:33N 49°04' E 008°20'0 0.0
2015-Jan-26 03:33N 49°04' E 008°20'0 0.0
2015-Jan-26 02:33N 49°04' E 008°20'0 0.0
2015-Jan-26 01:33N 49°04' E 008°20'0 0.0
2015-Jan-26 00:33N 49°04' E 008°20'0 0.0
2015-Jan-25 23:33N 49°04' E 008°20'0 0.0
2015-Jan-25 22:33N 49°04' E 008°20'0 0.0
2015-Jan-25 21:33N 49°04' E 008°20'0 0.0
2015-Jan-25 20:33N 49°04' E 008°20'0 0.0
2015-Jan-25 19:33N 49°04' E 008°20'0 0.0
2015-Jan-25 18:33N 49°04' E 008°20'0 0.0
2015-Jan-25 17:33N 49°04' E 008°20'0 0.2
2015-Jan-25 16:33N 49°04' E 008°20'0 0.0
2015-Jan-25 15:33N 49°04' E 008°20'0 0.0
2015-Jan-25 14:33N 49°04' E 008°20'0 0.0
2015-Jan-25 13:33N 49°04' E 008°20'0 0.0
2015-Jan-25 12:33N 49°04' E 008°20'0 0.0
2015-Jan-25 11:33N 49°04' E 008°20'0 0.0
2015-Jan-25 10:33N 49°04' E 008°20'0 0.2
2015-Jan-25 09:33N 49°04' E 008°20'0 0.1
2015-Jan-25 08:33N 49°04' E 008°20'1 0.6
2015-Jan-25 07:33N 49°04' E 008°19'1212.3
2015-Jan-25 06:33N 48°54' E 008°09'6 6.5
2015-Jan-25 05:33N 48°48' E 008°05'9 9.4
2015-Jan-25 04:33N 48°41' E 007°55'1 0.1
2015-Jan-24 10:10N 48°40' E 007°54'1 2.3
2015-Jan-24 09:34N 48°41' E 007°55'6 5.4
2015-Jan-24 08:32N 48°46' E 008°00'6 6.1
2015-Jan-24 07:33N 48°50' E 008°07'2 1.9
2015-Jan-24 06:33N 48°52' E 008°07'3 3.5
2015-Jan-24 05:33N 48°55' E 008°09'4 3.6
2015-Jan-24 04:33N 48°58' E 008°13'4 3.6
2015-Jan-24 03:33N 48°60' E 008°17'4 4.0
2015-Jan-24 02:34N 49°04' E 008°19'4 3.8
2015-Jan-24 01:33N 49°07' E 008°22'4 3.9
2015-Jan-24 00:33N 49°11' E 008°23'4 4.1
2015-Jan-23 23:33N 49°15' E 008°24'4 4.4
2015-Jan-23 22:33N 49°18' E 008°29'3 3.2
2015-Jan-23 21:33N 49°21' E 008°29'6 4.7
2015-Jan-23 20:18N 49°27' E 008°30'  
2015-Jan-21 13:18N 49°24' E 008°30'810.3
2015-Jan-21 12:33N 49°17' E 008°27'1312.6
2015-Jan-21 11:33N 49°05' E 008°20'1 0.6
2015-Jan-21 10:33N 49°04' E 008°20'0 0.0
2015-Jan-21 09:33N 49°04' E 008°20'0 0.0
2015-Jan-21 08:33N 49°04' E 008°20'0 0.0
2015-Jan-21 07:33N 49°04' E 008°20'0 0.0
2015-Jan-21 06:33N 49°04' E 008°20'0 0.0
2015-Jan-21 05:33N 49°04' E 008°20'0 0.0
2015-Jan-21 04:33N 49°04' E 008°20'0 0.0
2015-Jan-21 03:33N 49°04' E 008°20'0 0.0
2015-Jan-21 02:33N 49°04' E 008°20'0 0.0
2015-Jan-21 01:33N 49°04' E 008°20'0 0.0
2015-Jan-21 00:33N 49°04' E 008°20'0 0.1
2015-Jan-20 23:33N 49°04' E 008°20'0 0.0
2015-Jan-20 22:33N 49°04' E 008°20'0 0.0
2015-Jan-20 21:34N 49°04' E 008°20'0 0.0
2015-Jan-20 20:33N 49°04' E 008°20'2 2.2
2015-Jan-20 19:33N 49°06' E 008°22'5 4.8
2015-Jan-20 18:33N 49°11' E 008°23'5 4.8
2015-Jan-20 17:33N 49°15' E 008°26'4 3.7
2015-Jan-20 16:33N 49°19' E 008°27'6 5.5
2015-Jan-20 15:22N 49°25' E 008°30'38 4.3
2015-Jan-20 06:31N 50°03' E 008°31'2 0.2
2015-Jan-19 19:24N 50°05' E 008°31'3 3.5
2015-Jan-19 18:33N 50°05' E 008°36'5 5.0
2015-Jan-19 17:33N 50°06' E 008°44'5 5.4
2015-Jan-19 16:33N 50°08' E 008°52'1 0.6
2015-Jan-19 15:33N 50°07' E 008°53'4 4.1
2015-Jan-19 14:33N 50°05' E 008°58'6 4.3
2015-Jan-19 13:15N 50°00' E 009°03'3 0.8
2015-Jan-19 09:21N 49°58' E 009°06'0 0.0
2015-Jan-19 08:24N 49°58' E 009°06'0 0.0
2015-Jan-19 07:31N 49°58' E 009°06'0 0.0
2015-Jan-19 06:32N 49°58' E 009°06'0 0.0
2015-Jan-19 05:33N 49°58' E 009°06'0 0.0
2015-Jan-19 04:04N 49°58' E 009°06'0 0.0
2015-Jan-18 18:29N 49°58' E 009°06'0 0.0
2015-Jan-18 10:31N 49°58' E 009°06'3 3.1
2015-Jan-18 09:33N 50°00' E 009°03'4 3.7
2015-Jan-18 08:33N 50°03' E 008°59'2 2.2
2015-Jan-18 07:33N 50°05' E 008°57'4 4.1
2015-Jan-18 06:33N 50°07' E 008°52'4 3.7
2015-Jan-18 05:33N 50°08' E 008°47'2 2.5
2015-Jan-18 04:33N 50°07' E 008°44'0 0.0
2015-Jan-18 03:33N 50°07' E 008°44'0 0.0
2015-Jan-18 02:31N 50°07' E 008°44'0 0.0
2015-Jan-18 01:33N 50°07' E 008°44'0 0.0
2015-Jan-18 00:33N 50°07' E 008°44'0 0.0
2015-Jan-17 23:33N 50°07' E 008°44'0 0.0
2015-Jan-17 22:33N 50°07' E 008°44'0 0.0
2015-Jan-17 21:33N 50°07' E 008°44'0 0.0
2015-Jan-17 20:33N 50°07' E 008°44'0 0.0
2015-Jan-17 19:33N 50°07' E 008°44'0 0.0
2015-Jan-17 18:33N 50°07' E 008°44'0 0.0
2015-Jan-17 17:33N 50°07' E 008°44'1 0.7
2015-Jan-17 16:33N 50°06' E 008°43'5 4.6
2015-Jan-17 15:33N 50°05' E 008°36'3 2.8
2015-Jan-17 14:27N 50°04' E 008°32'42 6.0
2015-Jan-17 07:33N 49°22' E 008°30'10 9.7
2015-Jan-17 06:33N 49°14' E 008°23'10 9.6
2015-Jan-17 05:33N 49°04' E 008°21'0 0.0
2015-Jan-17 04:33N 49°04' E 008°21'0 0.0
2015-Jan-17 03:33N 49°04' E 008°21'  

Dump ship's entire track history